sensor_id;sensor_type;location;lat;lon;timestamp;temperature;humidity
66184;DHT22;52989;48.796;9.806;2022-07-30T00:01:12;17.00;99.90
66184;DHT22;52989;48.796;9.806;2022-07-30T00:03:38;17.20;99.90
66184;DHT22;52989;48.796;9.806;2022-07-30T00:06:03;17.50;99.90
66184;DHT22;52989;48.796;9.806;2022-07-30T00:08:29;17.10;99.90
66184;DHT22;52989;48.796;9.806;2022-07-30T00:10:55;16.60;99.90
66184;DHT22;52989;48.796;9.806;2022-07-30T00:13:20;16.40;99.90
66184;DHT22;52989;48.796;9.806;2022-07-30T00:15:46;16.50;99.90
66184;DHT22;52989;48.796;9.806;2022-07-30T00:18:12;17.10;99.90
66184;DHT22;52989;48.796;9.806;2022-07-30T00:20:37;16.90;99.90
66184;DHT22;52989;48.796;9.806;2022-07-30T00:23:05;16.70;99.90
66184;DHT22;52989;48.796;9.806;2022-07-30T00:25:31;16.40;99.90
66184;DHT22;52989;48.796;9.806;2022-07-30T00:27:57;16.40;99.90
66184;DHT22;52989;48.796;9.806;2022-07-30T00:30:23;16.10;99.90
66184;DHT22;52989;48.796;9.806;2022-07-30T00:32:49;16.00;99.90
66184;DHT22;52989;48.796;9.806;2022-07-30T00:35:15;15.90;99.90
66184;DHT22;52989;48.796;9.806;2022-07-30T00:37:40;16.00;99.90
66184;DHT22;52989;48.796;9.806;2022-07-30T00:40:07;15.90;99.90
66184;DHT22;52989;48.796;9.806;2022-07-30T00:42:42;16.00;99.90
66184;DHT22;52989;48.796;9.806;2022-07-30T00:45:09;16.00;99.90
66184;DHT22;52989;48.796;9.806;2022-07-30T00:47:36;15.90;99.90
66184;DHT22;52989;48.796;9.806;2022-07-30T00:50:02;15.90;99.90
66184;DHT22;52989;48.796;9.806;2022-07-30T00:52:30;15.80;99.90
66184;DHT22;52989;48.796;9.806;2022-07-30T00:54:56;15.80;99.90
66184;DHT22;52989;48.796;9.806;2022-07-30T00:57:22;15.70;99.90
66184;DHT22;52989;48.796;9.806;2022-07-30T00:59:48;15.80;99.90
66184;DHT22;52989;48.796;9.806;2022-07-30T01:02:13;15.70;99.90
66184;DHT22;52989;48.796;9.806;2022-07-30T01:04:39;15.80;99.90
66184;DHT22;52989;48.796;9.806;2022-07-30T01:07:05;15.80;99.90
66184;DHT22;52989;48.796;9.806;2022-07-30T01:09:30;15.70;99.90
66184;DHT22;52989;48.796;9.806;2022-07-30T01:11:56;15.60;99.90
66184;DHT22;52989;48.796;9.806;2022-07-30T01:14:22;15.50;99.90
66184;DHT22;52989;48.796;9.806;2022-07-30T01:16:48;15.60;99.90
66184;DHT22;52989;48.796;9.806;2022-07-30T01:19:23;15.60;99.90
66184;DHT22;52989;48.796;9.806;2022-07-30T01:25:19;15.70;99.90
66184;DHT22;52989;48.796;9.806;2022-07-30T01:27:55;15.70;99.90
66184;DHT22;52989;48.796;9.806;2022-07-30T01:30:24;15.90;99.90
66184;DHT22;52989;48.796;9.806;2022-07-30T01:32:52;15.80;99.90
66184;DHT22;52989;48.796;9.806;2022-07-30T01:35:21;15.80;99.90
66184;DHT22;52989;48.796;9.806;2022-07-30T01:37:48;15.70;99.90
66184;DHT22;52989;48.796;9.806;2022-07-30T01:40:15;15.80;99.90
66184;DHT22;52989;48.796;9.806;2022-07-30T01:42:42;15.70;99.90
66184;DHT22;52989;48.796;9.806;2022-07-30T01:45:10;16.10;99.90
66184;DHT22;52989;48.796;9.806;2022-07-30T01:47:37;16.40;99.90
66184;DHT22;52989;48.796;9.806;2022-07-30T01:50:05;16.10;99.90
66184;DHT22;52989;48.796;9.806;2022-07-30T01:52:35;16.20;99.90
66184;DHT22;52989;48.796;9.806;2022-07-30T01:55:04;16.90;99.90
66184;DHT22;52989;48.796;9.806;2022-07-30T01:57:31;16.80;99.90
66184;DHT22;52989;48.796;9.806;2022-07-30T02:00:04;16.20;99.90
66184;DHT22;52989;48.796;9.806;2022-07-30T02:02:31;15.90;99.90
66184;DHT22;52989;48.796;9.806;2022-07-30T02:04:57;16.20;99.90
66184;DHT22;52989;48.796;9.806;2022-07-30T02:07:28;16.10;99.90
66184;DHT22;52989;48.796;9.806;2022-07-30T02:10:00;16.00;99.90
66184;DHT22;52989;48.796;9.806;2022-07-30T02:12:28;15.90;99.90
66184;DHT22;52989;48.796;9.806;2022-07-30T02:15:23;15.70;99.90
66184;DHT22;52989;48.796;9.806;2022-07-30T02:17:58;15.90;99.90
66184;DHT22;52989;48.796;9.806;2022-07-30T02:20:27;16.20;99.90
66184;DHT22;52989;48.796;9.806;2022-07-30T02:22:59;16.10;99.90
66184;DHT22;52989;48.796;9.806;2022-07-30T02:25:26;16.20;99.90
66184;DHT22;52989;48.796;9.806;2022-07-30T02:27:55;16.30;99.90
66184;DHT22;52989;48.796;9.806;2022-07-30T02:30:24;16.10;99.90
66184;DHT22;52989;48.796;9.806;2022-07-30T02:32:54;16.00;99.90
66184;DHT22;52989;48.796;9.806;2022-07-30T02:35:24;16.00;99.90
66184;DHT22;52989;48.796;9.806;2022-07-30T02:37:53;16.10;99.90
66184;DHT22;52989;48.796;9.806;2022-07-30T02:40:20;16.30;99.90
66184;DHT22;52989;48.796;9.806;2022-07-30T02:42:49;16.40;99.90
66184;DHT22;52989;48.796;9.806;2022-07-30T02:45:16;16.40;99.90
66184;DHT22;52989;48.796;9.806;2022-07-30T02:47:43;16.20;99.90
66184;DHT22;52989;48.796;9.806;2022-07-30T02:50:10;16.30;99.90
66184;DHT22;52989;48.796;9.806;2022-07-30T02:52:37;16.40;99.90
66184;DHT22;52989;48.796;9.806;2022-07-30T02:55:06;16.30;99.90
66184;DHT22;52989;48.796;9.806;2022-07-30T02:57:33;16.60;99.90
66184;DHT22;52989;48.796;9.806;2022-07-30T02:59:59;16.40;99.90
66184;DHT22;52989;48.796;9.806;2022-07-30T03:02:26;16.00;99.90
66184;DHT22;52989;48.796;9.806;2022-07-30T03:04:53;16.20;99.90
66184;DHT22;52989;48.796;9.806;2022-07-30T03:07:19;16.30;99.90
66184;DHT22;52989;48.796;9.806;2022-07-30T03:09:46;16.20;99.90
66184;DHT22;52989;48.796;9.806;2022-07-30T03:12:13;16.40;99.90
66184;DHT22;52989;48.796;9.806;2022-07-30T03:14:40;16.90;99.90
66184;DHT22;52989;48.796;9.806;2022-07-30T03:17:06;16.60;99.90
66184;DHT22;52989;48.796;9.806;2022-07-30T03:19:36;16.50;99.90
66184;DHT22;52989;48.796;9.806;2022-07-30T03:22:03;16.40;99.90
66184;DHT22;52989;48.796;9.806;2022-07-30T03:24:31;15.90;99.90
66184;DHT22;52989;48.796;9.806;2022-07-30T03:26:58;15.70;99.90
66184;DHT22;52989;48.796;9.806;2022-07-30T03:29:26;15.40;99.90
66184;DHT22;52989;48.796;9.806;2022-07-30T03:31:52;15.90;99.90
66184;DHT22;52989;48.796;9.806;2022-07-30T03:34:19;16.50;99.90
66184;DHT22;52989;48.796;9.806;2022-07-30T03:36:45;16.20;99.90
66184;DHT22;52989;48.796;9.806;2022-07-30T03:39:12;16.40;99.90
66184;DHT22;52989;48.796;9.806;2022-07-30T03:41:38;16.40;99.90
66184;DHT22;52989;48.796;9.806;2022-07-30T03:44:05;16.20;99.90
66184;DHT22;52989;48.796;9.806;2022-07-30T03:46:34;16.60;99.90
66184;DHT22;52989;48.796;9.806;2022-07-30T03:49:01;16.50;99.90
66184;DHT22;52989;48.796;9.806;2022-07-30T03:51:26;16.00;99.90
66184;DHT22;52989;48.796;9.806;2022-07-30T03:53:53;16.10;99.90
66184;DHT22;52989;48.796;9.806;2022-07-30T03:56:19;15.90;99.90
66184;DHT22;52989;48.796;9.806;2022-07-30T03:58:45;15.80;99.90
66184;DHT22;52989;48.796;9.806;2022-07-30T04:01:10;15.50;99.90
66184;DHT22;52989;48.796;9.806;2022-07-30T04:03:36;15.40;99.90
66184;DHT22;52989;48.796;9.806;2022-07-30T04:06:03;15.30;99.90
66184;DHT22;52989;48.796;9.806;2022-07-30T04:08:29;15.20;99.90
66184;DHT22;52989;48.796;9.806;2022-07-30T04:10:55;15.40;99.90
66184;DHT22;52989;48.796;9.806;2022-07-30T04:13:20;15.30;99.90
66184;DHT22;52989;48.796;9.806;2022-07-30T04:18:30;15.40;99.90
66184;DHT22;52989;48.796;9.806;2022-07-30T04:20:58;15.30;99.90
66184;DHT22;52989;48.796;9.806;2022-07-30T04:23:25;15.20;99.90
66184;DHT22;52989;48.796;9.806;2022-07-30T04:25:51;15.10;99.90
66184;DHT22;52989;48.796;9.806;2022-07-30T04:28:18;15.00;99.90
66184;DHT22;52989;48.796;9.806;2022-07-30T04:30:45;14.90;99.90
66184;DHT22;52989;48.796;9.806;2022-07-30T04:33:11;14.90;99.90
66184;DHT22;52989;48.796;9.806;2022-07-30T04:35:37;15.00;99.90
66184;DHT22;52989;48.796;9.806;2022-07-30T04:38:03;15.20;99.90
66184;DHT22;52989;48.796;9.806;2022-07-30T04:40:29;15.40;99.90
66184;DHT22;52989;48.796;9.806;2022-07-30T04:42:56;15.50;99.90
66184;DHT22;52989;48.796;9.806;2022-07-30T04:45:22;15.30;99.90
66184;DHT22;52989;48.796;9.806;2022-07-30T04:47:48;15.10;99.90
66184;DHT22;52989;48.796;9.806;2022-07-30T04:50:14;15.10;99.90
66184;DHT22;52989;48.796;9.806;2022-07-30T04:52:42;14.90;99.90
66184;DHT22;52989;48.796;9.806;2022-07-30T04:55:10;14.90;99.90
66184;DHT22;52989;48.796;9.806;2022-07-30T04:57:37;14.90;99.90
66184;DHT22;52989;48.796;9.806;2022-07-30T05:00:05;15.00;99.90
66184;DHT22;52989;48.796;9.806;2022-07-30T05:02:32;15.00;99.90
66184;DHT22;52989;48.796;9.806;2022-07-30T05:04:59;15.20;99.90
66184;DHT22;52989;48.796;9.806;2022-07-30T05:07:26;15.40;99.90
66184;DHT22;52989;48.796;9.806;2022-07-30T05:09:52;16.20;99.90
66184;DHT22;52989;48.796;9.806;2022-07-30T05:12:18;16.20;99.90
66184;DHT22;52989;48.796;9.806;2022-07-30T05:14:44;16.90;99.90
66184;DHT22;52989;48.796;9.806;2022-07-30T05:17:09;16.50;99.90
66184;DHT22;52989;48.796;9.806;2022-07-30T05:19:35;16.00;99.90
66184;DHT22;52989;48.796;9.806;2022-07-30T05:22:00;16.70;99.90
66184;DHT22;52989;48.796;9.806;2022-07-30T05:24:26;16.20;99.90
66184;DHT22;52989;48.796;9.806;2022-07-30T05:26:52;15.80;99.90
66184;DHT22;52989;48.796;9.806;2022-07-30T05:29:17;15.80;99.90
66184;DHT22;52989;48.796;9.806;2022-07-30T05:31:43;16.30;99.90
66184;DHT22;52989;48.796;9.806;2022-07-30T05:34:08;16.30;99.90
66184;DHT22;52989;48.796;9.806;2022-07-30T05:36:34;16.10;99.90
66184;DHT22;52989;48.796;9.806;2022-07-30T05:39:00;16.10;99.90
66184;DHT22;52989;48.796;9.806;2022-07-30T05:41:25;16.00;99.90
66184;DHT22;52989;48.796;9.806;2022-07-30T05:43:54;15.90;99.90
66184;DHT22;52989;48.796;9.806;2022-07-30T05:46:20;15.90;99.90
66184;DHT22;52989;48.796;9.806;2022-07-30T05:48:46;15.90;99.90
66184;DHT22;52989;48.796;9.806;2022-07-30T05:51:11;15.90;99.90
66184;DHT22;52989;48.796;9.806;2022-07-30T05:53:37;16.00;99.90
66184;DHT22;52989;48.796;9.806;2022-07-30T05:56:02;16.00;99.90
66184;DHT22;52989;48.796;9.806;2022-07-30T05:58:28;16.10;99.90
66184;DHT22;52989;48.796;9.806;2022-07-30T06:00:54;16.30;99.90
66184;DHT22;52989;48.796;9.806;2022-07-30T06:03:19;16.70;99.90
66184;DHT22;52989;48.796;9.806;2022-07-30T06:05:45;16.80;99.90
66184;DHT22;52989;48.796;9.806;2022-07-30T06:08:11;16.80;99.90
66184;DHT22;52989;48.796;9.806;2022-07-30T06:10:36;16.80;99.90
66184;DHT22;52989;48.796;9.806;2022-07-30T06:13:02;16.60;99.90
66184;DHT22;52989;48.796;9.806;2022-07-30T06:15:28;16.80;99.90
66184;DHT22;52989;48.796;9.806;2022-07-30T06:17:53;16.90;99.90
66184;DHT22;52989;48.796;9.806;2022-07-30T06:20:19;17.50;99.90
66184;DHT22;52989;48.796;9.806;2022-07-30T06:22:45;17.40;99.90
66184;DHT22;52989;48.796;9.806;2022-07-30T06:25:11;17.80;99.90
66184;DHT22;52989;48.796;9.806;2022-07-30T06:27:37;17.60;99.90
66184;DHT22;52989;48.796;9.806;2022-07-30T06:30:05;17.70;99.90
66184;DHT22;52989;48.796;9.806;2022-07-30T06:32:31;17.50;99.90
66184;DHT22;52989;48.796;9.806;2022-07-30T06:34:57;17.50;99.90
66184;DHT22;52989;48.796;9.806;2022-07-30T06:37:22;18.10;99.90
66184;DHT22;52989;48.796;9.806;2022-07-30T06:39:48;17.90;99.90
66184;DHT22;52989;48.796;9.806;2022-07-30T06:42:14;18.00;99.90
66184;DHT22;52989;48.796;9.806;2022-07-30T06:44:39;17.90;99.90
66184;DHT22;52989;48.796;9.806;2022-07-30T06:47:05;17.70;99.90
66184;DHT22;52989;48.796;9.806;2022-07-30T06:49:32;17.70;99.90
66184;DHT22;52989;48.796;9.806;2022-07-30T06:51:57;18.10;99.90
66184;DHT22;52989;48.796;9.806;2022-07-30T06:54:23;18.20;99.90
66184;DHT22;52989;48.796;9.806;2022-07-30T06:56:49;18.20;99.90
66184;DHT22;52989;48.796;9.806;2022-07-30T06:59:14;18.30;99.90
66184;DHT22;52989;48.796;9.806;2022-07-30T07:01:40;18.50;99.90
66184;DHT22;52989;48.796;9.806;2022-07-30T07:04:06;18.60;99.90
66184;DHT22;52989;48.796;9.806;2022-07-30T07:06:31;19.00;99.90
66184;DHT22;52989;48.796;9.806;2022-07-30T07:08:57;19.00;99.90
66184;DHT22;52989;48.796;9.806;2022-07-30T07:11:23;19.20;99.90
66184;DHT22;52989;48.796;9.806;2022-07-30T07:13:49;19.10;99.90
66184;DHT22;52989;48.796;9.806;2022-07-30T07:16:14;19.30;99.90
66184;DHT22;52989;48.796;9.806;2022-07-30T07:18:40;19.20;99.10
66184;DHT22;52989;48.796;9.806;2022-07-30T07:21:06;19.30;98.80
66184;DHT22;52989;48.796;9.806;2022-07-30T07:23:33;19.20;99.80
66184;DHT22;52989;48.796;9.806;2022-07-30T07:25:59;19.30;99.00
66184;DHT22;52989;48.796;9.806;2022-07-30T07:28:25;19.00;98.70
66184;DHT22;52989;48.796;9.806;2022-07-30T07:30:51;19.40;98.00
66184;DHT22;52989;48.796;9.806;2022-07-30T07:33:16;19.90;97.60
66184;DHT22;52989;48.796;9.806;2022-07-30T07:35:42;19.60;97.90
66184;DHT22;52989;48.796;9.806;2022-07-30T07:38:08;19.60;97.00
66184;DHT22;52989;48.796;9.806;2022-07-30T07:40:33;19.60;97.30
66184;DHT22;52989;48.796;9.806;2022-07-30T07:42:59;19.50;97.10
66184;DHT22;52989;48.796;9.806;2022-07-30T07:45:25;19.80;97.40
66184;DHT22;52989;48.796;9.806;2022-07-30T07:47:50;20.20;95.60
66184;DHT22;52989;48.796;9.806;2022-07-30T07:50:17;20.00;95.70
66184;DHT22;52989;48.796;9.806;2022-07-30T07:52:43;19.90;96.40
66184;DHT22;52989;48.796;9.806;2022-07-30T07:55:09;19.90;95.50
66184;DHT22;52989;48.796;9.806;2022-07-30T07:57:42;19.80;95.50
66184;DHT22;52989;48.796;9.806;2022-07-30T08:00:10;20.00;95.30
66184;DHT22;52989;48.796;9.806;2022-07-30T08:02:36;20.60;94.80
66184;DHT22;52989;48.796;9.806;2022-07-30T08:05:03;20.60;95.60
66184;DHT22;52989;48.796;9.806;2022-07-30T08:07:30;20.40;94.90
66184;DHT22;52989;48.796;9.806;2022-07-30T08:09:56;20.40;93.60
66184;DHT22;52989;48.796;9.806;2022-07-30T08:12:22;20.50;94.10
66184;DHT22;52989;48.796;9.806;2022-07-30T08:14:47;20.40;94.10
66184;DHT22;52989;48.796;9.806;2022-07-30T08:17:13;20.70;94.00
66184;DHT22;52989;48.796;9.806;2022-07-30T08:19:39;21.10;92.10
66184;DHT22;52989;48.796;9.806;2022-07-30T08:22:05;21.30;91.10
66184;DHT22;52989;48.796;9.806;2022-07-30T08:24:30;21.20;92.10
66184;DHT22;52989;48.796;9.806;2022-07-30T08:26:57;21.30;91.00
66184;DHT22;52989;48.796;9.806;2022-07-30T08:29:22;21.60;90.90
66184;DHT22;52989;48.796;9.806;2022-07-30T08:31:48;21.60;90.40
66184;DHT22;52989;48.796;9.806;2022-07-30T08:34:14;21.50;87.00
66184;DHT22;52989;48.796;9.806;2022-07-30T08:36:40;21.60;87.10
66184;DHT22;52989;48.796;9.806;2022-07-30T08:39:06;22.00;84.90
66184;DHT22;52989;48.796;9.806;2022-07-30T08:41:31;22.10;81.70
66184;DHT22;52989;48.796;9.806;2022-07-30T08:43:59;22.20;79.70
66184;DHT22;52989;48.796;9.806;2022-07-30T08:46:27;22.30;78.80
66184;DHT22;52989;48.796;9.806;2022-07-30T08:48:54;22.30;77.60
66184;DHT22;52989;48.796;9.806;2022-07-30T08:51:22;22.50;80.30
66184;DHT22;52989;48.796;9.806;2022-07-30T08:53:48;22.20;79.30
66184;DHT22;52989;48.796;9.806;2022-07-30T08:56:14;22.50;74.10
66184;DHT22;52989;48.796;9.806;2022-07-30T08:58:40;22.40;74.10
66184;DHT22;52989;48.796;9.806;2022-07-30T09:01:06;22.40;74.10
66184;DHT22;52989;48.796;9.806;2022-07-30T09:03:32;22.50;71.60
66184;DHT22;52989;48.796;9.806;2022-07-30T09:05:59;22.40;72.20
66184;DHT22;52989;48.796;9.806;2022-07-30T09:08:26;22.30;74.00
66184;DHT22;52989;48.796;9.806;2022-07-30T09:10:52;22.70;72.40
66184;DHT22;52989;48.796;9.806;2022-07-30T09:13:26;22.80;70.10
66184;DHT22;52989;48.796;9.806;2022-07-30T09:15:53;22.90;71.90
66184;DHT22;52989;48.796;9.806;2022-07-30T09:18:33;22.70;71.70
66184;DHT22;52989;48.796;9.806;2022-07-30T09:21:01;22.90;68.20
66184;DHT22;52989;48.796;9.806;2022-07-30T09:23:37;22.80;68.30
66184;DHT22;52989;48.796;9.806;2022-07-30T09:26:03;23.10;68.80
66184;DHT22;52989;48.796;9.806;2022-07-30T09:28:30;23.20;67.90
66184;DHT22;52989;48.796;9.806;2022-07-30T09:30:57;23.30;66.50
66184;DHT22;52989;48.796;9.806;2022-07-30T09:33:41;23.30;67.00
66184;DHT22;52989;48.796;9.806;2022-07-30T09:36:09;23.40;64.90
66184;DHT22;52989;48.796;9.806;2022-07-30T09:38:52;23.40;66.60
66184;DHT22;52989;48.796;9.806;2022-07-30T09:41:20;23.70;65.20
66184;DHT22;52989;48.796;9.806;2022-07-30T09:43:58;23.60;63.30
66184;DHT22;52989;48.796;9.806;2022-07-30T09:46:46;23.60;64.80
66184;DHT22;52989;48.796;9.806;2022-07-30T09:49:17;23.90;64.70
66184;DHT22;52989;48.796;9.806;2022-07-30T09:51:44;23.50;63.60
66184;DHT22;52989;48.796;9.806;2022-07-30T09:54:10;23.40;62.10
66184;DHT22;52989;48.796;9.806;2022-07-30T09:56:36;23.60;62.50
66184;DHT22;52989;48.796;9.806;2022-07-30T09:59:01;23.80;62.40
66184;DHT22;52989;48.796;9.806;2022-07-30T10:01:27;24.00;62.40
66184;DHT22;52989;48.796;9.806;2022-07-30T10:03:53;24.20;61.30
66184;DHT22;52989;48.796;9.806;2022-07-30T10:06:31;24.10;60.90
66184;DHT22;52989;48.796;9.806;2022-07-30T10:08:57;24.00;61.30
66184;DHT22;52989;48.796;9.806;2022-07-30T10:11:23;24.00;61.80
66184;DHT22;52989;48.796;9.806;2022-07-30T10:13:54;24.20;61.10
66184;DHT22;52989;48.796;9.806;2022-07-30T10:16:19;24.30;59.40
66184;DHT22;52989;48.796;9.806;2022-07-30T10:18:46;24.20;59.70
66184;DHT22;52989;48.796;9.806;2022-07-30T10:21:12;24.20;60.30
66184;DHT22;52989;48.796;9.806;2022-07-30T10:23:39;24.20;59.70
66184;DHT22;52989;48.796;9.806;2022-07-30T10:26:05;24.20;59.50
66184;DHT22;52989;48.796;9.806;2022-07-30T10:28:33;24.50;60.80
66184;DHT22;52989;48.796;9.806;2022-07-30T10:30:59;24.70;61.20
66184;DHT22;52989;48.796;9.806;2022-07-30T10:33:28;24.40;61.40
66184;DHT22;52989;48.796;9.806;2022-07-30T10:35:54;24.50;59.60
66184;DHT22;52989;48.796;9.806;2022-07-30T10:38:23;24.50;60.40
66184;DHT22;52989;48.796;9.806;2022-07-30T10:41:16;24.60;60.00
66184;DHT22;52989;48.796;9.806;2022-07-30T10:49:22;25.30;58.30
66184;DHT22;52989;48.796;9.806;2022-07-30T10:51:51;25.40;60.60
66184;DHT22;52989;48.796;9.806;2022-07-30T10:54:44;25.40;58.00
66184;DHT22;52989;48.796;9.806;2022-07-30T10:57:18;25.50;60.00
66184;DHT22;52989;48.796;9.806;2022-07-30T11:02:24;25.20;57.10
66184;DHT22;52989;48.796;9.806;2022-07-30T11:07:41;25.00;56.90
66184;DHT22;52989;48.796;9.806;2022-07-30T11:10:33;24.90;59.10
66184;DHT22;52989;48.796;9.806;2022-07-30T11:12:59;24.90;58.10
66184;DHT22;52989;48.796;9.806;2022-07-30T11:15:55;25.20;57.70
66184;DHT22;52989;48.796;9.806;2022-07-30T11:18:22;25.20;58.30
66184;DHT22;52989;48.796;9.806;2022-07-30T11:21:17;24.60;57.10
66184;DHT22;52989;48.796;9.806;2022-07-30T11:23:43;24.60;58.00
66184;DHT22;52989;48.796;9.806;2022-07-30T11:28:55;25.20;58.30
66184;DHT22;52989;48.796;9.806;2022-07-30T11:31:47;25.20;57.40
66184;DHT22;52989;48.796;9.806;2022-07-30T11:37:08;25.10;56.20
66184;DHT22;52989;48.796;9.806;2022-07-30T11:42:32;25.10;56.70
66184;DHT22;52989;48.796;9.806;2022-07-30T11:47:47;25.30;58.30
66184;DHT22;52989;48.796;9.806;2022-07-30T11:50:39;25.30;58.10
66184;DHT22;52989;48.796;9.806;2022-07-30T11:53:08;25.60;56.60
66184;DHT22;52989;48.796;9.806;2022-07-30T11:55:43;25.90;55.90
66184;DHT22;52989;48.796;9.806;2022-07-30T11:58:34;26.20;54.70
66184;DHT22;52989;48.796;9.806;2022-07-30T12:01:31;26.40;54.80
66184;DHT22;52989;48.796;9.806;2022-07-30T12:04:00;26.00;55.60
66184;DHT22;52989;48.796;9.806;2022-07-30T12:06:26;25.80;55.00
66184;DHT22;52989;48.796;9.806;2022-07-30T12:08:52;25.70;54.50
66184;DHT22;52989;48.796;9.806;2022-07-30T12:11:18;25.80;54.20
66184;DHT22;52989;48.796;9.806;2022-07-30T12:13:57;25.60;54.30
66184;DHT22;52989;48.796;9.806;2022-07-30T12:16:25;25.80;55.20
66184;DHT22;52989;48.796;9.806;2022-07-30T12:18:51;25.90;56.60
66184;DHT22;52989;48.796;9.806;2022-07-30T12:21:17;26.00;54.30
66184;DHT22;52989;48.796;9.806;2022-07-30T12:24:04;25.60;54.10
66184;DHT22;52989;48.796;9.806;2022-07-30T12:26:34;25.30;55.30
66184;DHT22;52989;48.796;9.806;2022-07-30T12:29:03;25.20;55.20
66184;DHT22;52989;48.796;9.806;2022-07-30T12:31:29;25.40;54.80
66184;DHT22;52989;48.796;9.806;2022-07-30T12:33:55;25.50;53.20
66184;DHT22;52989;48.796;9.806;2022-07-30T12:36:29;25.80;55.10
66184;DHT22;52989;48.796;9.806;2022-07-30T12:38:55;26.00;54.30
66184;DHT22;52989;48.796;9.806;2022-07-30T12:41:23;26.50;53.40
66184;DHT22;52989;48.796;9.806;2022-07-30T12:44:04;26.50;52.20
66184;DHT22;52989;48.796;9.806;2022-07-30T12:46:39;25.90;53.00
66184;DHT22;52989;48.796;9.806;2022-07-30T12:49:06;25.40;54.50
66184;DHT22;52989;48.796;9.806;2022-07-30T12:51:34;25.80;54.80
66184;DHT22;52989;48.796;9.806;2022-07-30T12:54:14;26.50;53.50
66184;DHT22;52989;48.796;9.806;2022-07-30T12:56:58;27.00;53.10
66184;DHT22;52989;48.796;9.806;2022-07-30T12:59:24;26.50;52.30
66184;DHT22;52989;48.796;9.806;2022-07-30T13:01:50;26.40;52.60
66184;DHT22;52989;48.796;9.806;2022-07-30T13:04:17;26.40;50.80
66184;DHT22;52989;48.796;9.806;2022-07-30T13:06:42;26.20;50.80
66184;DHT22;52989;48.796;9.806;2022-07-30T13:09:20;26.30;52.90
66184;DHT22;52989;48.796;9.806;2022-07-30T13:11:46;26.90;49.90
66184;DHT22;52989;48.796;9.806;2022-07-30T13:14:12;27.20;51.70
66184;DHT22;52989;48.796;9.806;2022-07-30T13:16:40;27.90;52.30
66184;DHT22;52989;48.796;9.806;2022-07-30T13:19:06;28.40;52.40
66184;DHT22;52989;48.796;9.806;2022-07-30T13:21:33;28.00;48.40
66184;DHT22;52989;48.796;9.806;2022-07-30T13:23:59;27.70;49.10
66184;DHT22;52989;48.796;9.806;2022-07-30T13:26:26;27.60;49.70
66184;DHT22;52989;48.796;9.806;2022-07-30T13:28:54;27.30;49.10
66184;DHT22;52989;48.796;9.806;2022-07-30T13:31:21;27.90;49.80
66184;DHT22;52989;48.796;9.806;2022-07-30T13:33:47;27.50;49.00
66184;DHT22;52989;48.796;9.806;2022-07-30T13:36:13;27.50;49.00
66184;DHT22;52989;48.796;9.806;2022-07-30T13:38:38;27.50;48.70
66184;DHT22;52989;48.796;9.806;2022-07-30T13:41:04;27.50;48.80
66184;DHT22;52989;48.796;9.806;2022-07-30T13:43:30;28.00;49.60
66184;DHT22;52989;48.796;9.806;2022-07-30T13:45:56;27.50;48.50
66184;DHT22;52989;48.796;9.806;2022-07-30T13:48:21;27.50;48.50
66184;DHT22;52989;48.796;9.806;2022-07-30T13:50:47;28.00;49.50
66184;DHT22;52989;48.796;9.806;2022-07-30T13:53:13;28.10;48.30
66184;DHT22;52989;48.796;9.806;2022-07-30T13:55:39;27.60;47.60
66184;DHT22;52989;48.796;9.806;2022-07-30T13:58:07;27.80;49.20
66184;DHT22;52989;48.796;9.806;2022-07-30T14:00:34;28.10;48.90
66184;DHT22;52989;48.796;9.806;2022-07-30T14:03:03;27.90;47.70
66184;DHT22;52989;48.796;9.806;2022-07-30T14:05:29;27.80;48.70
66184;DHT22;52989;48.796;9.806;2022-07-30T14:07:55;27.70;50.60
66184;DHT22;52989;48.796;9.806;2022-07-30T14:10:22;27.50;49.50
66184;DHT22;52989;48.796;9.806;2022-07-30T14:12:50;27.70;48.40
66184;DHT22;52989;48.796;9.806;2022-07-30T14:15:19;27.80;48.30
66184;DHT22;52989;48.796;9.806;2022-07-30T14:17:45;27.80;47.60
66184;DHT22;52989;48.796;9.806;2022-07-30T14:20:10;27.60;47.40
66184;DHT22;52989;48.796;9.806;2022-07-30T14:22:36;27.60;47.90
66184;DHT22;52989;48.796;9.806;2022-07-30T14:25:02;27.90;48.70
66184;DHT22;52989;48.796;9.806;2022-07-30T14:27:28;28.40;47.50
66184;DHT22;52989;48.796;9.806;2022-07-30T14:29:54;28.00;49.40
66184;DHT22;52989;48.796;9.806;2022-07-30T14:32:19;28.10;50.00
66184;DHT22;52989;48.796;9.806;2022-07-30T14:34:45;28.10;47.70
66184;DHT22;52989;48.796;9.806;2022-07-30T14:37:11;27.90;47.10
66184;DHT22;52989;48.796;9.806;2022-07-30T14:39:37;27.50;47.60
66184;DHT22;52989;48.796;9.806;2022-07-30T14:42:02;27.70;49.30
66184;DHT22;52989;48.796;9.806;2022-07-30T14:44:29;27.60;48.40
66184;DHT22;52989;48.796;9.806;2022-07-30T14:46:54;27.60;48.40
66184;DHT22;52989;48.796;9.806;2022-07-30T14:49:20;27.40;48.80
66184;DHT22;52989;48.796;9.806;2022-07-30T14:51:46;27.30;48.10
66184;DHT22;52989;48.796;9.806;2022-07-30T14:54:12;27.30;48.60
66184;DHT22;52989;48.796;9.806;2022-07-30T14:56:38;27.50;49.00
66184;DHT22;52989;48.796;9.806;2022-07-30T14:59:04;27.90;50.60
66184;DHT22;52989;48.796;9.806;2022-07-30T15:01:29;28.00;49.30
66184;DHT22;52989;48.796;9.806;2022-07-30T15:03:55;27.70;49.60
66184;DHT22;52989;48.796;9.806;2022-07-30T15:06:20;27.70;48.50
66184;DHT22;52989;48.796;9.806;2022-07-30T15:08:46;27.30;49.80
66184;DHT22;52989;48.796;9.806;2022-07-30T15:11:12;27.00;48.60
66184;DHT22;52989;48.796;9.806;2022-07-30T15:13:38;27.20;49.70
66184;DHT22;52989;48.796;9.806;2022-07-30T15:16:04;27.50;49.20
66184;DHT22;52989;48.796;9.806;2022-07-30T15:18:31;27.40;49.10
66184;DHT22;52989;48.796;9.806;2022-07-30T15:20:56;27.60;49.10
66184;DHT22;52989;48.796;9.806;2022-07-30T15:23:23;27.90;49.10
66184;DHT22;52989;48.796;9.806;2022-07-30T15:25:48;28.30;49.80
66184;DHT22;52989;48.796;9.806;2022-07-30T15:28:14;28.30;49.80
66184;DHT22;52989;48.796;9.806;2022-07-30T15:30:39;28.20;48.50
66184;DHT22;52989;48.796;9.806;2022-07-30T15:33:05;28.10;49.10
66184;DHT22;52989;48.796;9.806;2022-07-30T15:35:31;27.90;49.20
66184;DHT22;52989;48.796;9.806;2022-07-30T15:37:57;27.60;49.70
66184;DHT22;52989;48.796;9.806;2022-07-30T15:40:22;27.60;49.20
66184;DHT22;52989;48.796;9.806;2022-07-30T15:42:49;27.80;49.00
66184;DHT22;52989;48.796;9.806;2022-07-30T15:45:14;27.50;48.80
66184;DHT22;52989;48.796;9.806;2022-07-30T15:47:40;27.10;48.70
66184;DHT22;52989;48.796;9.806;2022-07-30T15:50:06;26.90;49.30
66184;DHT22;52989;48.796;9.806;2022-07-30T15:52:32;26.90;49.20
66184;DHT22;52989;48.796;9.806;2022-07-30T15:55:01;27.00;48.30
66184;DHT22;52989;48.796;9.806;2022-07-30T15:57:26;27.40;48.30
66184;DHT22;52989;48.796;9.806;2022-07-30T15:59:52;27.80;47.60
66184;DHT22;52989;48.796;9.806;2022-07-30T16:02:18;27.60;47.60